Time;durP1;ratioP1;P1;durP2;ratioP2;P2;SDS_P1;SDS_P2;PMS_P1;PMS_P2;Temp;Humidity;BMP_temperature;BMP_pressure;BME280_temperature;BME280_humidity;BME280_pressure;Samples;Min_cycle;Max_cycle;Signal;HPM_P1;HPM_P2
2022/09/07 00:00:49;;;;;;;7.75;2.60;;;;;;;;;;5065984;28;20049;-79
2022/09/07 00:03:15;;;;;;;4.78;2.20;;;;;;;;;;5064942;28;20052;-79
2022/09/07 00:05:45;;;;;;;4.88;2.08;;;;;;;;;;5066141;28;20029;-78
2022/09/07 00:08:11;;;;;;;5.85;2.20;;;;;;;;;;5065352;28;20024;-79
2022/09/07 00:10:37;;;;;;;7.05;2.75;;;;;;;;;;5066099;28;20092;-79
2022/09/07 00:13:03;;;;;;;6.22;2.60;;;;;;;;;;5066179;28;20067;-79
2022/09/07 00:15:29;;;;;;;6.93;2.55;;;;;;;;;;5065208;28;20267;-79
2022/09/07 00:17:54;;;;;;;5.82;2.28;;;;;;;;;;5064918;28;20029;-79
2022/09/07 00:20:21;;;;;;;5.70;2.33;;;;;;;;;;5065941;28;20021;-79
2022/09/07 00:22:46;;;;;;;6.93;2.30;;;;;;;;;;5065823;28;20056;-79
2022/09/07 00:25:12;;;;;;;9.10;2.70;;;;;;;;;;5065877;28;20025;-80
2022/09/07 00:27:38;;;;;;;6.85;2.53;;;;;;;;;;5064607;28;20021;-79
2022/09/07 00:30:05;;;;;;;5.15;2.17;;;;;;;;;;5065848;28;20044;-79
2022/09/07 00:32:30;;;;;;;7.25;2.50;;;;;;;;;;5065738;28;20017;-78
2022/09/07 00:34:55;;;;;;;6.68;2.30;;;;;;;;;;5065778;28;20021;-79
2022/09/07 00:37:21;;;;;;;4.18;2.30;;;;;;;;;;5064556;28;20021;-78
2022/09/07 00:39:46;;;;;;;4.95;2.30;;;;;;;;;;5064395;28;20043;-79
2022/09/07 00:42:12;;;;;;;7.28;2.53;;;;;;;;;;5065627;28;20052;-79
2022/09/07 00:44:43;;;;;;;6.90;2.70;;;;;;;;;;5065463;28;20025;-84
2022/09/07 00:47:14;;;;;;;6.18;2.63;;;;;;;;;;5065304;28;20029;-83
2022/09/07 00:49:42;;;;;;;6.75;2.25;;;;;;;;;;5065469;28;20092;-83
2022/09/07 00:52:09;;;;;;;6.05;2.40;;;;;;;;;;5065515;28;20308;-82
2022/09/07 00:54:41;;;;;;;5.70;2.20;;;;;;;;;;5065013;28;20426;-80
2022/09/07 00:57:07;;;;;;;6.50;2.22;;;;;;;;;;5065160;28;20216;-81
2022/09/07 00:59:41;;;;;;;5.22;2.20;;;;;;;;;;5065125;28;20021;-81
2022/09/07 01:02:07;;;;;;;6.28;2.40;;;;;;;;;;5063900;28;20162;-83
2022/09/07 01:04:33;;;;;;;10.80;2.50;;;;;;;;;;5065116;28;20029;-81
2022/09/07 01:07:01;;;;;;;6.63;2.15;;;;;;;;;;5065129;28;20025;-84
2022/09/07 01:09:28;;;;;;;6.10;2.20;;;;;;;;;;5065073;28;20051;-83
2022/09/07 01:11:58;;;;;;;7.65;2.30;;;;;;;;;;5064977;28;20028;-81
2022/09/07 01:14:27;;;;;;;5.10;2.20;;;;;;;;;;5065138;28;20009;-81
2022/09/07 01:17:21;;;;;;;10.75;2.53;;;;;;;;;;5065124;28;20027;-83
2022/09/07 01:20:07;;;;;;;6.82;2.50;;;;;;;;;;5062718;28;20059;-83
2022/09/07 01:22:54;;;;;;;7.35;2.20;;;;;;;;;;5064799;28;20025;-83
2022/09/07 01:25:46;;;;;;;9.02;2.30;;;;;;;;;;5064804;28;20310;-80
2022/09/07 01:28:29;;;;;;;5.40;2.03;;;;;;;;;;5064608;28;20021;-84
2022/09/07 01:31:32;;;;;;;5.78;2.20;;;;;;;;;;5064589;28;20025;-83
2022/09/07 01:34:10;;;;;;;5.57;2.17;;;;;;;;;;5063362;28;20028;-83
2022/09/07 01:36:57;;;;;;;7.70;2.22;;;;;;;;;;5064504;28;20017;-84
2022/09/07 01:39:32;;;;;;;5.22;2.13;;;;;;;;;;5063316;28;20324;-84
2022/09/07 01:42:02;;;;;;;5.43;2.13;;;;;;;;;;5064548;28;20024;-83
2022/09/07 01:44:34;;;;;;;9.63;2.22;;;;;;;;;;5064303;28;20088;-84
2022/09/07 01:47:16;;;;;;;5.88;2.33;;;;;;;;;;5064402;28;20016;-84
2022/09/07 01:50:06;;;;;;;4.47;2.00;;;;;;;;;;5064333;28;20028;-83
2022/09/07 01:52:34;;;;;;;6.65;2.10;;;;;;;;;;5063121;28;20031;-84
2022/09/07 01:55:07;;;;;;;5.32;2.08;;;;;;;;;;5064188;28;20040;-83
2022/09/07 01:57:47;;;;;;;4.85;2.00;;;;;;;;;;5064232;28;20033;-80
2022/09/07 02:00:16;;;;;;;5.70;2.13;;;;;;;;;;5062950;28;20245;-80
2022/09/07 02:02:50;;;;;;;8.05;2.20;;;;;;;;;;5063885;28;20040;-80
2022/09/07 02:05:30;;;;;;;6.70;2.10;;;;;;;;;;5064308;28;20020;-84
2022/09/07 02:08:03;;;;;;;7.35;2.13;;;;;;;;;;5062713;28;20100;-83
2022/09/07 02:10:37;;;;;;;5.43;2.00;;;;;;;;;;5063984;28;20044;-82
2022/09/07 02:13:08;;;;;;;5.75;2.10;;;;;;;;;;5064014;28;20321;-84
2022/09/07 02:15:48;;;;;;;7.82;2.05;;;;;;;;;;5063941;28;20025;-85
2022/09/07 02:18:13;;;;;;;5.68;1.85;;;;;;;;;;5064070;28;20021;-84
2022/09/07 02:20:43;;;;;;;4.13;1.80;;;;;;;;;;5063919;28;20205;-84
2022/09/07 02:23:17;;;;;;;7.65;1.85;;;;;;;;;;5063845;28;20228;-83
2022/09/07 02:25:46;;;;;;;4.72;1.92;;;;;;;;;;5063828;28;20062;-83
2022/09/07 02:28:14;;;;;;;5.47;1.90;;;;;;;;;;5063803;28;20035;-82
2022/09/07 02:30:40;;;;;;;4.88;1.83;;;;;;;;;;5065868;28;20100;-82
2022/09/07 02:33:06;;;;;;;7.30;2.15;;;;;;;;;;5067960;28;20025;-84
2022/09/07 02:35:32;;;;;;;6.78;1.90;;;;;;;;;;5067962;28;20063;-83
2022/09/07 02:38:00;;;;;;;7.60;2.20;;;;;;;;;;5067914;28;20096;-83
2022/09/07 02:40:26;;;;;;;5.30;1.90;;;;;;;;;;5067860;28;20032;-80
2022/09/07 02:42:51;;;;;;;5.68;1.95;;;;;;;;;;5066553;28;20277;-81
2022/09/07 02:45:17;;;;;;;5.68;1.95;;;;;;;;;;5067709;28;20021;-84
2022/09/07 02:48:20;;;;;;;5.78;1.80;;;;;;;;;;5068121;28;20028;-83
2022/09/07 02:51:16;;;;;;;6.45;2.00;;;;;;;;;;5049881;28;20048;-84
2022/09/07 02:53:57;;;;;;;5.97;2.00;;;;;;;;;;5066541;28;20032;-83
2022/09/07 02:56:45;;;;;;;4.72;2.10;;;;;;;;;;5066343;28;20029;-82
2022/09/07 02:59:29;;;;;;;6.70;2.00;;;;;;;;;;5067495;28;20024;-82
2022/09/07 03:02:00;;;;;;;5.28;2.10;;;;;;;;;;5067156;28;20057;-83
2022/09/07 03:04:44;;;;;;;7.00;2.22;;;;;;;;;;5067395;28;20082;-83
2022/09/07 03:07:15;;;;;;;4.93;1.80;;;;;;;;;;5066307;28;20104;-81
2022/09/07 03:09:45;;;;;;;4.32;1.70;;;;;;;;;;5066181;28;20232;-80
2022/09/07 03:12:11;;;;;;;4.55;1.80;;;;;;;;;;5067359;28;20021;-83
2022/09/07 03:14:40;;;;;;;7.30;2.05;;;;;;;;;;5067269;28;20021;-84
2022/09/07 03:17:06;;;;;;;4.75;1.88;;;;;;;;;;5066005;28;20033;-84
2022/09/07 03:19:31;;;;;;;5.80;1.95;;;;;;;;;;5067109;28;20021;-84
2022/09/07 03:21:56;;;;;;;6.57;1.95;;;;;;;;;;5066959;28;20351;-80
2022/09/07 03:24:22;;;;;;;4.97;2.00;;;;;;;;;;5065962;28;20025;-80
2022/09/07 03:26:47;;;;;;;6.00;2.10;;;;;;;;;;5067242;28;20067;-80
2022/09/07 03:29:14;;;;;;;5.05;1.85;;;;;;;;;;5066987;28;20084;-84
2022/09/07 03:31:39;;;;;;;7.93;2.20;;;;;;;;;;5066950;28;20032;-82
2022/09/07 03:34:06;;;;;;;5.65;1.90;;;;;;;;;;5066811;28;20025;-81
2022/09/07 03:36:32;;;;;;;4.82;2.05;;;;;;;;;;5066647;28;20044;-80
2022/09/07 03:38:58;;;;;;;5.30;2.10;;;;;;;;;;5066790;28;20364;-80
2022/09/07 03:41:24;;;;;;;4.90;1.92;;;;;;;;;;5065621;28;20024;-80
2022/09/07 03:43:50;;;;;;;5.05;1.75;;;;;;;;;;5066695;28;20021;-81
2022/09/07 03:46:18;;;;;;;4.43;1.90;;;;;;;;;;5065505;28;20028;-80
2022/09/07 03:48:44;;;;;;;6.50;2.33;;;;;;;;;;5066603;28;20305;-80
2022/09/07 03:51:14;;;;;;;6.10;2.00;;;;;;;;;;5065416;28;20257;-82
2022/09/07 03:53:43;;;;;;;4.78;2.05;;;;;;;;;;5066338;28;20021;-83
2022/09/07 03:56:18;;;;;;;8.38;2.10;;;;;;;;;;5066400;28;20021;-81
2022/09/07 03:58:45;;;;;;;6.55;2.08;;;;;;;;;;5066412;28;20028;-81
2022/09/07 04:01:17;;;;;;;5.13;1.98;;;;;;;;;;5066142;28;20037;-81
2022/09/07 04:03:43;;;;;;;8.02;2.30;;;;;;;;;;5066350;28;20021;-80
2022/09/07 04:06:08;;;;;;;7.05;2.17;;;;;;;;;;5066016;28;20025;-81
2022/09/07 04:08:35;;;;;;;7.65;2.10;;;;;;;;;;5064963;28;20067;-80
2022/09/07 04:11:03;;;;;;;5.90;2.08;;;;;;;;;;5065019;28;20036;-80
2022/09/07 04:13:29;;;;;;;5.60;2.13;;;;;;;;;;5066082;28;20042;-79
2022/09/07 04:15:55;;;;;;;8.85;2.35;;;;;;;;;;5064955;28;20320;-79
2022/09/07 04:18:21;;;;;;;13.50;2.45;;;;;;;;;;5066066;28;20032;-84
2022/09/07 04:20:49;;;;;;;4.97;2.10;;;;;;;;;;5065828;28;20027;-82
2022/09/07 04:23:15;;;;;;;7.90;2.10;;;;;;;;;;5065845;28;20021;-82
2022/09/07 04:25:51;;;;;;;6.25;2.60;;;;;;;;;;5065814;28;20128;-85
2022/09/07 04:28:17;;;;;;;7.90;2.00;;;;;;;;;;5065783;28;20017;-85
2022/09/07 04:30:43;;;;;;;6.20;2.30;;;;;;;;;;5065897;28;20067;-83
2022/09/07 04:33:09;;;;;;;4.13;1.92;;;;;;;;;;5065737;28;20021;-82
2022/09/07 04:35:39;;;;;;;6.40;2.35;;;;;;;;;;5065627;28;20332;-83
2022/09/07 04:38:05;;;;;;;4.60;1.92;;;;;;;;;;5065930;28;20040;-82
2022/09/07 04:40:30;;;;;;;5.30;2.00;;;;;;;;;;5065468;28;20244;-84
2022/09/07 04:42:56;;;;;;;6.80;2.10;;;;;;;;;;5065383;28;20033;-87
2022/09/07 04:45:21;;;;;;;5.50;2.08;;;;;;;;;;5065501;28;20025;-82
2022/09/07 04:47:47;;;;;;;7.43;2.00;;;;;;;;;;5065533;28;20052;-84
2022/09/07 04:50:14;;;;;;;7.68;2.15;;;;;;;;;;5065458;28;20058;-84
2022/09/07 04:52:39;;;;;;;6.75;2.85;;;;;;;;;;5080289;28;20194;-84
2022/09/07 04:55:05;;;;;;;8.80;2.38;;;;;;;;;;5065337;28;20089;-85
2022/09/07 04:57:30;;;;;;;7.75;2.10;;;;;;;;;;5065239;28;20343;-82
2022/09/07 04:59:56;;;;;;;7.10;2.20;;;;;;;;;;5065250;28;20028;-81
2022/09/07 05:02:21;;;;;;;5.75;1.90;;;;;;;;;;5065029;28;20084;-83
2022/09/07 05:04:47;;;;;;;6.80;2.10;;;;;;;;;;5064963;28;20021;-82
2022/09/07 05:07:12;;;;;;;7.00;2.08;;;;;;;;;;5064940;28;20304;-80
2022/09/07 05:09:37;;;;;;;4.85;1.88;;;;;;;;;;5064902;28;20016;-85
2022/09/07 05:12:03;;;;;;;9.05;2.08;;;;;;;;;;5065061;28;20197;-85
2022/09/07 05:14:28;;;;;;;8.02;2.03;;;;;;;;;;5063753;28;20048;-79
2022/09/07 05:16:54;;;;;;;8.35;2.00;;;;;;;;;;5065023;28;20035;-86
2022/09/07 05:19:19;;;;;;;10.02;2.40;;;;;;;;;;5064868;28;20363;-84
2022/09/07 05:21:45;;;;;;;6.25;2.10;;;;;;;;;;5063702;28;20021;-86
2022/09/07 05:24:10;;;;;;;8.18;2.22;;;;;;;;;;5064725;28;20048;-87
2022/09/07 05:26:36;;;;;;;7.47;2.20;;;;;;;;;;5064602;28;20021;-87
2022/09/07 05:29:03;;;;;;;8.32;2.50;;;;;;;;;;5064875;28;20048;-86
2022/09/07 05:31:28;;;;;;;6.95;2.55;;;;;;;;;;5063390;28;20044;-80
2022/09/07 05:33:56;;;;;;;6.90;2.22;;;;;;;;;;5063743;28;20024;-81
2022/09/07 05:36:24;;;;;;;8.45;2.20;;;;;;;;;;5064460;28;20217;-81
2022/09/07 05:38:49;;;;;;;6.65;1.80;;;;;;;;;;5064382;28;20021;-82
2022/09/07 05:41:18;;;;;;;8.32;2.40;;;;;;;;;;5064020;28;20024;-81
2022/09/07 05:43:44;;;;;;;6.95;2.08;;;;;;;;;;5064133;28;20032;-83
2022/09/07 05:46:10;;;;;;;7.97;2.22;;;;;;;;;;5064486;28;20044;-82
2022/09/07 05:48:36;;;;;;;8.60;2.20;;;;;;;;;;5064129;28;20025;-82
2022/09/07 05:51:02;;;;;;;7.97;2.47;;;;;;;;;;5064037;28;20021;-81
2022/09/07 05:53:29;;;;;;;10.77;2.10;;;;;;;;;;5062838;28;20326;-81
2022/09/07 05:55:59;;;;;;;8.43;2.30;;;;;;;;;;5063764;28;20082;-82
2022/09/07 05:58:25;;;;;;;10.38;1.83;;;;;;;;;;5063987;28;20017;-82
2022/09/07 06:00:50;;;;;;;7.25;1.95;;;;;;;;;;5063936;28;20072;-81
2022/09/07 06:03:15;;;;;;;7.60;1.95;;;;;;;;;;5064042;28;20021;-81
2022/09/07 06:05:41;;;;;;;10.57;2.30;;;;;;;;;;5063402;28;20016;-81
2022/09/07 06:08:09;;;;;;;9.25;2.10;;;;;;;;;;5063587;28;20023;-82
2022/09/07 06:10:36;;;;;;;8.20;1.92;;;;;;;;;;5062550;28;20051;-81
2022/09/07 06:13:03;;;;;;;8.13;2.03;;;;;;;;;;5063454;28;20070;-81
2022/09/07 06:15:28;;;;;;;7.30;2.30;;;;;;;;;;5063528;28;20021;-82
2022/09/07 06:17:53;;;;;;;6.85;2.03;;;;;;;;;;5063853;28;20024;-81
2022/09/07 06:20:19;;;;;;;8.55;1.83;;;;;;;;;;5063798;28;20336;-81
2022/09/07 06:22:44;;;;;;;7.82;2.30;;;;;;;;;;5063517;28;20094;-81
2022/09/07 06:25:09;;;;;;;12.18;2.30;;;;;;;;;;5063657;28;20031;-82
2022/09/07 06:27:35;;;;;;;7.93;2.05;;;;;;;;;;5063590;28;20096;-81
2022/09/07 06:30:01;;;;;;;10.20;2.30;;;;;;;;;;5063844;28;20025;-81
2022/09/07 06:32:26;;;;;;;14.10;2.47;;;;;;;;;;5063759;28;20021;-81
2022/09/07 06:34:52;;;;;;;6.97;2.10;;;;;;;;;;5063982;28;20021;-82
2022/09/07 06:37:17;;;;;;;9.30;2.50;;;;;;;;;;5063480;28;20029;-82
2022/09/07 06:39:46;;;;;;;10.65;2.30;;;;;;;;;;5063467;28;20246;-81
2022/09/07 06:42:11;;;;;;;12.25;2.30;;;;;;;;;;5063644;28;20317;-82
2022/09/07 06:44:36;;;;;;;9.02;2.13;;;;;;;;;;5063544;28;20094;-81
2022/09/07 06:47:02;;;;;;;6.32;2.53;;;;;;;;;;5063362;28;20024;-80
2022/09/07 06:49:28;;;;;;;7.15;2.38;;;;;;;;;;5063378;28;20029;-82
2022/09/07 06:51:53;;;;;;;8.88;2.30;;;;;;;;;;5063047;28;20048;-81
2022/09/07 06:54:19;;;;;;;8.70;2.10;;;;;;;;;;5063337;28;20021;-81
2022/09/07 06:56:44;;;;;;;11.38;2.63;;;;;;;;;;5063559;28;20024;-81
2022/09/07 06:59:09;;;;;;;8.75;2.70;;;;;;;;;;5063528;28;20066;-80
2022/09/07 07:01:35;;;;;;;9.57;2.30;;;;;;;;;;5063260;28;20041;-81
2022/09/07 07:04:01;;;;;;;8.00;2.20;;;;;;;;;;5063396;28;20080;-80
2022/09/07 07:06:33;;;;;;;12.63;2.42;;;;;;;;;;5063546;28;20028;-81
2022/09/07 07:08:59;;;;;;;9.68;2.45;;;;;;;;;;5063342;28;20021;-83
2022/09/07 07:11:25;;;;;;;8.50;2.42;;;;;;;;;;5062051;28;20092;-82
2022/09/07 07:13:50;;;;;;;7.22;2.40;;;;;;;;;;5063473;28;20221;-83
2022/09/07 07:16:16;;;;;;;11.95;2.63;;;;;;;;;;5064540;28;20036;-83
2022/09/07 07:18:42;;;;;;;11.80;2.80;;;;;;;;;;5067044;28;20098;-81
2022/09/07 07:21:11;;;;;;;11.60;2.33;;;;;;;;;;5066895;28;20216;-86
2022/09/07 07:23:36;;;;;;;8.63;2.20;;;;;;;;;;5066843;28;20088;-83
2022/09/07 07:26:11;;;;;;;12.90;2.20;;;;;;;;;;5066929;28;20032;-80
2022/09/07 07:28:36;;;;;;;12.65;2.33;;;;;;;;;;5066933;28;20017;-84
2022/09/07 07:31:03;;;;;;;11.52;2.33;;;;;;;;;;5066902;28;20021;-81
2022/09/07 07:33:34;;;;;;;13.32;2.50;;;;;;;;;;5066845;28;20209;-81
2022/09/07 07:36:17;;;;;;;8.57;2.30;;;;;;;;;;5066755;28;20128;-84
2022/09/07 07:38:44;;;;;;;8.40;2.15;;;;;;;;;;5066626;28;20021;-84
2022/09/07 07:41:14;;;;;;;14.45;3.08;;;;;;;;;;5066722;28;20021;-83
2022/09/07 07:43:40;;;;;;;12.48;2.30;;;;;;;;;;5066618;28;20025;-80
2022/09/07 07:46:06;;;;;;;12.52;2.45;;;;;;;;;;5066589;28;20087;-83
2022/09/07 07:48:33;;;;;;;11.55;2.55;;;;;;;;;;5066521;28;20027;-80
2022/09/07 07:51:00;;;;;;;10.07;2.60;;;;;;;;;;5066328;28;20081;-85
2022/09/07 07:53:26;;;;;;;13.15;2.85;;;;;;;;;;5065218;28;20028;-80
2022/09/07 07:55:52;;;;;;;8.77;2.42;;;;;;;;;;5066292;28;20040;-78
2022/09/07 07:58:17;;;;;;;12.48;2.50;;;;;;;;;;5066159;28;20374;-86
2022/09/07 08:00:43;;;;;;;11.10;2.20;;;;;;;;;;5064994;28;20033;-83
2022/09/07 08:03:08;;;;;;;11.45;2.40;;;;;;;;;;5065964;28;20041;-85
2022/09/07 08:05:35;;;;;;;10.93;2.80;;;;;;;;;;5066037;28;20048;-84
2022/09/07 08:08:01;;;;;;;14.70;2.70;;;;;;;;;;5066256;28;20080;-80
2022/09/07 08:10:27;;;;;;;13.63;2.40;;;;;;;;;;5066187;28;20017;-83
2022/09/07 08:12:53;;;;;;;13.13;2.45;;;;;;;;;;5064802;28;20212;-83
2022/09/07 08:15:18;;;;;;;15.65;2.78;;;;;;;;;;5066015;28;20017;-84
2022/09/07 08:17:46;;;;;;;10.88;2.80;;;;;;;;;;5066023;28;20024;-80
2022/09/07 08:20:12;;;;;;;11.10;2.50;;;;;;;;;;5066058;28;20017;-79
2022/09/07 08:22:38;;;;;;;16.60;3.70;;;;;;;;;;5065717;28;20039;-82
2022/09/07 08:25:05;;;;;;;12.70;2.40;;;;;;;;;;5065642;28;20025;-85
2022/09/07 08:27:30;;;;;;;16.75;2.90;;;;;;;;;;5065152;28;20024;-82
2022/09/07 08:29:55;;;;;;;10.27;2.20;;;;;;;;;;5065541;28;20025;-85
2022/09/07 08:32:22;;;;;;;12.25;2.22;;;;;;;;;;5065634;28;20190;-82
2022/09/07 08:34:47;;;;;;;11.40;2.30;;;;;;;;;;5065822;28;20301;-85
2022/09/07 08:37:13;;;;;;;9.38;2.40;;;;;;;;;;5065639;28;20016;-87
2022/09/07 08:39:40;;;;;;;13.00;2.78;;;;;;;;;;5064299;28;20048;-80
2022/09/07 08:42:15;;;;;;;10.68;2.38;;;;;;;;;;5065386;28;20032;-85
2022/09/07 08:44:53;;;;;;;11.10;2.67;;;;;;;;;;5065510;28;20025;-86
2022/09/07 08:47:46;;;;;;;14.63;2.92;;;;;;;;;;5065486;28;20108;-84
2022/09/07 08:50:43;;;;;;;14.07;2.45;;;;;;;;;;5065336;28;20305;-80
2022/09/07 08:53:14;;;;;;;14.20;2.50;;;;;;;;;;5056963;28;20073;-83
2022/09/07 08:55:45;;;;;;;13.10;2.72;;;;;;;;;;5065162;28;20044;-85
2022/09/07 08:58:15;;;;;;;14.90;2.80;;;;;;;;;;5065183;28;20029;-85
2022/09/07 09:00:40;;;;;;;14.05;2.50;;;;;;;;;;5065054;28;20037;-86
2022/09/07 09:03:19;;;;;;;15.20;2.92;;;;;;;;;;5065126;28;20088;-86
2022/09/07 09:06:03;;;;;;;16.27;2.97;;;;;;;;;;5064977;28;20021;-82
2022/09/07 09:08:29;;;;;;;13.98;2.47;;;;;;;;;;5064850;28;20013;-84
2022/09/07 09:11:06;;;;;;;18.48;2.63;;;;;;;;;;5063648;28;20308;-82
2022/09/07 09:13:40;;;;;;;13.95;2.70;;;;;;;;;;5064949;28;20190;-83
2022/09/07 09:16:36;;;;;;;13.02;2.53;;;;;;;;;;5065253;28;20021;-83
2022/09/07 09:19:28;;;;;;;15.65;2.10;;;;;;;;;;5063555;28;20025;-83
2022/09/07 09:22:08;;;;;;;18.70;3.17;;;;;;;;;;5064552;28;20056;-80
2022/09/07 09:24:37;;;;;;;13.25;2.60;;;;;;;;;;5064724;28;20021;-79
2022/09/07 09:27:02;;;;;;;20.40;2.95;;;;;;;;;;5064722;28;20067;-80
2022/09/07 09:29:28;;;;;;;14.40;2.70;;;;;;;;;;5064667;28;20029;-84
2022/09/07 09:31:53;;;;;;;12.63;2.85;;;;;;;;;;5064239;28;20040;-78
2022/09/07 09:34:19;;;;;;;11.10;2.40;;;;;;;;;;5064685;28;20021;-83
2022/09/07 09:36:47;;;;;;;19.40;2.63;;;;;;;;;;5064569;28;20082;-84
2022/09/07 09:39:35;;;;;;;11.98;2.45;;;;;;;;;;5063654;28;20265;-83
2022/09/07 09:42:14;;;;;;;11.18;2.67;;;;;;;;;;5064533;28;20017;-83
2022/09/07 09:44:40;;;;;;;15.48;3.00;;;;;;;;;;5064217;28;20031;-79
2022/09/07 09:47:25;;;;;;;12.20;2.55;;;;;;;;;;5064279;28;20025;-77
2022/09/07 09:49:52;;;;;;;12.98;2.70;;;;;;;;;;5064171;28;20197;-82
2022/09/07 09:52:20;;;;;;;15.02;2.58;;;;;;;;;;5064023;28;20016;-80
2022/09/07 09:54:52;;;;;;;8.40;2.05;;;;;;;;;;5063955;28;20071;-83
2022/09/07 09:57:51;;;;;;;13.20;2.45;;;;;;;;;;5063743;28;20239;-83
2022/09/07 10:00:22;;;;;;;11.20;2.30;;;;;;;;;;5063577;28;20064;-80
2022/09/07 10:03:17;;;;;;;14.13;2.40;;;;;;;;;;5063788;28;20029;-83
2022/09/07 10:05:45;;;;;;;11.77;2.28;;;;;;;;;;5059603;28;20048;-84
2022/09/07 10:08:20;;;;;;;12.82;2.55;;;;;;;;;;5064065;28;20320;-85
2022/09/07 10:10:58;;;;;;;13.68;2.80;;;;;;;;;;5063772;28;20025;-82
2022/09/07 10:13:30;;;;;;;13.77;2.30;;;;;;;;;;5063853;28;20028;-84
2022/09/07 10:15:57;;;;;;;11.98;2.70;;;;;;;;;;5063922;28;20021;-84
2022/09/07 10:18:33;;;;;;;13.25;3.03;;;;;;;;;;5063595;28;20067;-84
2022/09/07 10:21:23;;;;;;;14.88;2.72;;;;;;;;;;5063774;28;20091;-78
2022/09/07 10:24:21;;;;;;;13.70;2.50;;;;;;;;;;5062468;28;20021;-83
2022/09/07 10:26:47;;;;;;;12.35;2.38;;;;;;;;;;5062245;28;20249;-79
2022/09/07 10:29:15;;;;;;;14.15;3.35;;;;;;;;;;5063782;28;20032;-77
2022/09/07 10:32:04;;;;;;;11.45;2.78;;;;;;;;;;5062398;28;20028;-80
2022/09/07 10:34:46;;;;;;;10.02;2.45;;;;;;;;;;5062550;28;20074;-81
2022/09/07 10:37:41;;;;;;;8.85;2.08;;;;;;;;;;5063687;28;20025;-81
2022/09/07 10:40:20;;;;;;;11.13;2.47;;;;;;;;;;5061437;28;20037;-84
2022/09/07 10:42:55;;;;;;;11.23;2.30;;;;;;;;;;5063547;28;20115;-81
2022/09/07 10:45:35;;;;;;;10.40;2.10;;;;;;;;;;5063570;28;20304;-84
2022/09/07 10:48:11;;;;;;;11.80;2.33;;;;;;;;;;5063412;28;20100;-79
2022/09/07 10:50:48;;;;;;;10.27;2.42;;;;;;;;;;5063699;28;20305;-77
2022/09/07 10:53:32;;;;;;;12.55;2.70;;;;;;;;;;5067588;28;20056;-79
2022/09/07 10:56:05;;;;;;;9.98;2.33;;;;;;;;;;5067668;28;20251;-79
2022/09/07 10:58:42;;;;;;;12.38;2.42;;;;;;;;;;5067472;28;20328;-77
2022/09/07 11:01:32;;;;;;;10.70;2.70;;;;;;;;;;5067321;28;20037;-81
2022/09/07 11:04:12;;;;;;;9.82;2.20;;;;;;;;;;5066458;28;20232;-80
2022/09/07 11:06:47;;;;;;;10.43;2.10;;;;;;;;;;5067230;28;20024;-77
2022/09/07 11:09:32;;;;;;;14.27;2.40;;;;;;;;;;5067214;28;20024;-78
2022/09/07 11:12:06;;;;;;;11.32;2.17;;;;;;;;;;5067214;28;20250;-79
2022/09/07 11:14:41;;;;;;;12.52;2.50;;;;;;;;;;5067179;28;20021;-79
2022/09/07 11:17:28;;;;;;;13.13;2.17;;;;;;;;;;5067093;28;20051;-81
2022/09/07 11:20:25;;;;;;;8.20;2.00;;;;;;;;;;5066997;28;20077;-81
2022/09/07 11:23:15;;;;;;;10.18;1.98;;;;;;;;;;5066907;28;20052;-81
2022/09/07 11:25:44;;;;;;;10.35;2.33;;;;;;;;;;5067029;28;20040;-80
2022/09/07 11:28:18;;;;;;;12.77;2.30;;;;;;;;;;5066869;28;20017;-84
2022/09/07 11:30:50;;;;;;;8.52;2.10;;;;;;;;;;5066968;28;20205;-82
2022/09/07 11:33:23;;;;;;;12.68;2.10;;;;;;;;;;5065628;28;20020;-81
2022/09/07 11:36:01;;;;;;;10.05;1.90;;;;;;;;;;5065524;28;20025;-81
2022/09/07 11:38:34;;;;;;;6.63;1.90;;;;;;;;;;5066727;28;20055;-81
2022/09/07 11:41:17;;;;;;;9.50;2.10;;;;;;;;;;5066883;28;20208;-80
2022/09/07 11:43:47;;;;;;;8.98;1.90;;;;;;;;;;5066579;28;20325;-83
2022/09/07 11:46:18;;;;;;;10.68;1.95;;;;;;;;;;5065823;28;20335;-80
2022/09/07 11:49:25;;;;;;;11.55;2.10;;;;;;;;;;5066604;28;20032;-80
2022/09/07 11:52:01;;;;;;;11.38;1.95;;;;;;;;;;5066528;28;20066;-82
2022/09/07 11:54:58;;;;;;;12.23;1.95;;;;;;;;;;5066533;28;20135;-80
2022/09/07 11:57:45;;;;;;;11.75;2.10;;;;;;;;;;5064027;28;20032;-81
2022/09/07 12:00:16;;;;;;;11.77;2.55;;;;;;;;;;5065213;28;20027;-79
2022/09/07 12:03:12;;;;;;;8.27;2.40;;;;;;;;;;5065266;28;20052;-80
2022/09/07 12:06:10;;;;;;;13.00;2.15;;;;;;;;;;5066125;28;20025;-80
2022/09/07 12:09:01;;;;;;;11.85;2.20;;;;;;;;;;5066213;28;20021;-81
2022/09/07 12:11:41;;;;;;;10.80;2.13;;;;;;;;;;5065972;28;20382;-82
2022/09/07 12:14:37;;;;;;;10.90;2.15;;;;;;;;;;5066103;28;20114;-82
2022/09/07 12:17:14;;;;;;;10.73;2.58;;;;;;;;;;5064845;28;20036;-83
2022/09/07 12:19:39;;;;;;;8.65;2.10;;;;;;;;;;5066033;28;20301;-85
2022/09/07 12:22:21;;;;;;;15.98;2.78;;;;;;;;;;5065910;28;20025;-82
2022/09/07 12:24:50;;;;;;;7.50;2.00;;;;;;;;;;5066152;28;20021;-83
2022/09/07 12:27:18;;;;;;;10.13;2.30;;;;;;;;;;5064835;28;20024;-84
2022/09/07 12:29:44;;;;;;;11.60;2.25;;;;;;;;;;5065827;28;20035;-82
2022/09/07 12:32:10;;;;;;;13.98;2.83;;;;;;;;;;5065969;28;20027;-82
2022/09/07 12:34:45;;;;;;;7.38;1.92;;;;;;;;;;5065696;28;20016;-82
2022/09/07 12:37:33;;;;;;;;;;;;;;;;;;5066096;28;20335;-84
2022/09/07 12:40:27;;;;;;;15.07;2.83;;;;;;;;;;5065685;28;20206;-80
2022/09/07 12:43:30;;;;;;;13.50;2.08;;;;;;;;;;5065899;28;20024;-84
2022/09/07 12:45:56;;;;;;;8.07;2.10;;;;;;;;;;5054630;28;20097;-82
2022/09/07 12:48:40;;;;;;;10.98;2.00;;;;;;;;;;5065513;28;20063;-81
2022/09/07 12:51:34;;;;;;;15.88;2.40;;;;;;;;;;5065408;28;20028;-85
2022/09/07 12:54:38;;;;;;;10.10;2.17;;;;;;;;;;5064451;28;20052;-82
2022/09/07 12:57:35;;;;;;;10.75;2.53;;;;;;;;;;5058619;28;20324;-82
2022/09/07 13:00:03;;;;;;;15.55;2.20;;;;;;;;;;5065138;28;20032;-81
2022/09/07 13:03:00;;;;;;;10.02;2.00;;;;;;;;;;5064024;28;20029;-84
2022/09/07 13:05:49;;;;;;;12.95;2.28;;;;;;;;;;5064835;28;20021;-81
2022/09/07 13:08:37;;;;;;;10.65;2.33;;;;;;;;;;5063879;28;20021;-80
2022/09/07 13:11:18;;;;;;;10.65;2.13;;;;;;;;;;5064986;28;20043;-80
2022/09/07 13:14:00;;;;;;;13.80;2.13;;;;;;;;;;5064835;28;20040;-82
2022/09/07 13:16:29;;;;;;;12.20;2.33;;;;;;;;;;5064844;28;20080;-82
2022/09/07 13:18:55;;;;;;;11.13;2.30;;;;;;;;;;5063826;28;20048;-81
2022/09/07 13:21:35;;;;;;;11.75;2.42;;;;;;;;;;5064756;28;20178;-82
2022/09/07 13:24:17;;;;;;;12.02;2.20;;;;;;;;;;5063896;28;20112;-83
2022/09/07 13:27:04;;;;;;;9.38;2.10;;;;;;;;;;5064979;28;20021;-82
2022/09/07 13:29:37;;;;;;;10.20;2.05;;;;;;;;;;5064770;28;20021;-86
2022/09/07 13:32:12;;;;;;;13.35;2.90;;;;;;;;;;5064553;28;20032;-85
2022/09/07 13:34:56;;;;;;;;;;;;;;;;;;5064953;28;20087;-87
2022/09/07 13:37:24;;;;;;;8.80;1.83;;;;;;;;;;5064627;28;19908;-86
2022/09/07 13:39:53;;;;;;;13.00;2.70;;;;;;;;;;5064386;28;20024;-86
2022/09/07 13:42:34;;;;;;;11.88;2.30;;;;;;;;;;5064325;28;20025;-83
2022/09/07 13:45:03;;;;;;;9.98;2.25;;;;;;;;;;5064384;28;20021;-84
2022/09/07 13:48:08;;;;;;;10.07;1.92;;;;;;;;;;5064434;28;20023;-85
2022/09/07 13:51:00;;;;;;;7.78;2.00;;;;;;;;;;5064228;28;20084;-84
2022/09/07 13:53:44;;;;;;;11.73;2.25;;;;;;;;;;5064272;28;20028;-83
2022/09/07 13:56:38;;;;;;;9.60;2.10;;;;;;;;;;5064304;28;20126;-81
2022/09/07 13:59:26;;;;;;;8.55;2.00;;;;;;;;;;5062815;28;20029;-82
2022/09/07 14:01:53;;;;;;;8.80;2.15;;;;;;;;;;5063925;28;20103;-83
2022/09/07 14:04:19;;;;;;;10.45;2.17;;;;;;;;;;5064061;28;20074;-80
2022/09/07 14:06:44;;;;;;;8.55;2.40;;;;;;;;;;5064041;28;20020;-82
2022/09/07 14:09:19;;;;;;;9.18;2.20;;;;;;;;;;5062885;28;20194;-84
2022/09/07 14:11:49;;;;;;;6.72;1.90;;;;;;;;;;5062906;28;20025;-85
2022/09/07 14:14:22;;;;;;;9.48;2.08;;;;;;;;;;5062834;28;20036;-83
2022/09/07 14:17:15;;;;;;;8.13;2.33;;;;;;;;;;5064095;28;20029;-82
2022/09/07 14:19:44;;;;;;;7.07;2.00;;;;;;;;;;5062960;28;20116;-80
2022/09/07 14:22:21;;;;;;;10.32;2.20;;;;;;;;;;5063584;28;20088;-82
2022/09/07 14:24:57;;;;;;;11.00;2.53;;;;;;;;;;5063806;28;20020;-79
2022/09/07 14:27:56;;;;;;;10.38;2.30;;;;;;;;;;5063073;28;20043;-83
2022/09/07 14:30:26;;;;;;;10.52;2.45;;;;;;;;;;5050817;28;20319;-81
2022/09/07 14:32:53;;;;;;;12.73;2.55;;;;;;;;;;5062985;28;20017;-80
2022/09/07 14:35:22;;;;;;;9.93;1.98;;;;;;;;;;5063528;28;20075;-82
2022/09/07 14:37:48;;;;;;;8.65;1.98;;;;;;;;;;5063050;28;20067;-80
2022/09/07 14:40:33;;;;;;;10.63;2.50;;;;;;;;;;5062898;28;20059;-80
2022/09/07 14:42:58;;;;;;;9.55;2.20;;;;;;;;;;5062952;28;20028;-80
2022/09/07 14:45:25;;;;;;;10.13;2.65;;;;;;;;;;5063477;28;20252;-81
2022/09/07 14:47:53;;;;;;;9.18;2.08;;;;;;;;;;5063130;28;20316;-81
2022/09/07 14:50:32;;;;;;;8.25;2.00;;;;;;;;;;5063214;28;20065;-80
2022/09/07 14:53:01;;;;;;;11.07;2.15;;;;;;;;;;5063212;28;20017;-80
2022/09/07 14:55:38;;;;;;;9.57;2.20;;;;;;;;;;5061809;28;20709;-80
2022/09/07 14:58:12;;;;;;;8.73;2.30;;;;;;;;;;5063226;28;20375;-81
2022/09/07 15:00:38;;;;;;;8.83;2.10;;;;;;;;;;5063312;28;20102;-80
2022/09/07 15:03:27;;;;;;;7.88;2.00;;;;;;;;;;5063107;28;20288;-80
2022/09/07 15:05:54;;;;;;;10.50;2.40;;;;;;;;;;5063239;28;20102;-81
2022/09/07 15:08:39;;;;;;;6.35;1.80;;;;;;;;;;5062877;28;20021;-80
2022/09/07 15:11:11;;;;;;;10.50;2.60;;;;;;;;;;5061957;28;20100;-82